createdAt,value
2016-11-26T00:00:33.613Z,1014.49
2016-11-26T00:01:49.722Z,1014.5
2016-11-26T00:03:04.592Z,1014.52
2016-11-26T00:04:19.456Z,1014.51
2016-11-26T00:05:32.832Z,1014.49
2016-11-26T00:06:47.965Z,1014.51
2016-11-26T00:08:04.708Z,1014.51
2016-11-26T00:09:20.822Z,1014.58
2016-11-26T00:10:38.133Z,1014.55
2016-11-26T00:11:52.428Z,1014.6
2016-11-26T00:13:07.233Z,1014.55
2016-11-26T00:14:20.380Z,1014.57
2016-11-26T00:15:35.371Z,1014.57
2016-11-26T00:16:50.358Z,1014.52
2016-11-26T00:18:05.650Z,1014.55
2016-11-26T00:19:19.122Z,1014.49
2016-11-26T00:20:33.840Z,1014.51
2016-11-26T00:21:50.247Z,1014.52
2016-11-26T00:23:03.835Z,1014.5
2016-11-26T00:24:20.334Z,1014.5
2016-11-26T00:25:35.015Z,1014.53
2016-11-26T00:26:51.520Z,1014.48
2016-11-26T00:28:04.680Z,1014.45
2016-11-26T00:29:19.720Z,1014.43
2016-11-26T00:30:36.761Z,1014.44
2016-11-26T00:31:52.372Z,1014.43
2016-11-26T00:33:07.497Z,1014.41
2016-11-26T00:34:18.045Z,1014.42
2016-11-26T00:35:32.617Z,1014.42
2016-11-26T00:36:47.264Z,1014.42
2016-11-26T00:38:00.845Z,1014.39
2016-11-26T00:39:15.980Z,1014.36
2016-11-26T00:40:32.670Z,1014.37
2016-11-26T00:41:48.534Z,1014.37
2016-11-26T00:43:04.812Z,1014.37
2016-11-26T00:44:19.988Z,1014.43
2016-11-26T00:45:36.016Z,1014.38
2016-11-26T00:46:51.665Z,1014.4
2016-11-26T00:48:06.768Z,1014.4
2016-11-26T00:49:22.406Z,1014.42
2016-11-26T00:50:38.481Z,1014.38
2016-11-26T00:51:53.413Z,1014.37
2016-11-26T00:53:08.007Z,1014.37
2016-11-26T00:54:22.744Z,1014.32
2016-11-26T00:55:35.964Z,1014.31
2016-11-26T00:56:51.951Z,1014.33
2016-11-26T00:58:07.455Z,1014.3
2016-11-26T00:59:22.401Z,1014.31
2016-11-26T01:00:35.599Z,1014.29
2016-11-26T01:01:47.657Z,1014.28
2016-11-26T01:03:04.082Z,1014.23
2016-11-26T01:04:20.506Z,1014.23
2016-11-26T01:05:35.412Z,1014.24
2016-11-26T01:06:51.453Z,1014.21
2016-11-26T01:08:06.929Z,1014.19
2016-11-26T01:09:21.478Z,1014.24
2016-11-26T01:10:36.928Z,1014.26
2016-11-26T01:11:53.088Z,1014.23
2016-11-26T01:13:07.846Z,1014.24
2016-11-26T01:14:24.011Z,1014.22
2016-11-26T01:15:40.702Z,1014.29
2016-11-26T01:16:54.573Z,1014.28
2016-11-26T01:18:09.985Z,1014.28
2016-11-26T01:19:26.072Z,1014.21
2016-11-26T01:20:42.613Z,1014.29
2016-11-26T01:21:58.520Z,1014.29
2016-11-26T01:23:14.831Z,1014.25
2016-11-26T01:24:29.528Z,1014.25
2016-11-26T01:25:45.418Z,1014.28
2016-11-26T01:27:02.181Z,1014.33
2016-11-26T01:28:18.059Z,1014.31
2016-11-26T01:29:32.471Z,1014.29
2016-11-26T01:30:45.685Z,1014.31
2016-11-26T01:32:00.591Z,1014.3
2016-11-26T01:33:13.650Z,1014.29
2016-11-26T01:34:28.175Z,1014.31
2016-11-26T01:35:44.350Z,1014.33
2016-11-26T01:36:57.498Z,1014.33
2016-11-26T01:38:14.234Z,1014.32
2016-11-26T01:39:31.060Z,1014.33
2016-11-26T01:40:47.360Z,1014.33
2016-11-26T01:42:02.033Z,1014.3
2016-11-26T01:43:17.934Z,1014.28
2016-11-26T01:44:32.804Z,1014.27
2016-11-26T01:45:47.905Z,1014.28
2016-11-26T01:47:04.064Z,1014.23
2016-11-26T01:48:19.810Z,1014.24
2016-11-26T01:49:36.614Z,1014.22
2016-11-26T01:50:51.937Z,1014.23
2016-11-26T01:52:05.797Z,1014.23
2016-11-26T01:53:20.226Z,1014.21
2016-11-26T01:54:36.714Z,1014.22
2016-11-26T01:55:50.508Z,1014.2
2016-11-26T01:57:05.111Z,1014.24
2016-11-26T01:58:18.976Z,1014.2
2016-11-26T01:59:34.863Z,1014.17
2016-11-26T02:00:50.188Z,1014.18
2016-11-26T02:02:04.511Z,1014.19
2016-11-26T02:03:19.270Z,1014.14
2016-11-26T02:04:32.903Z,1014.12
2016-11-26T02:05:48.926Z,1014.17
2016-11-26T02:07:04.015Z,1014.14
2016-11-26T02:08:18.798Z,1014.17
2016-11-26T02:09:33.636Z,1014.2
2016-11-26T02:10:50.152Z,1014.21
2016-11-26T02:12:06.406Z,1014.17
2016-11-26T02:13:21.482Z,1014.17
2016-11-26T02:14:37.981Z,1014.19
2016-11-26T02:15:52.661Z,1014.19
2016-11-26T02:17:06.327Z,1014.17
2016-11-26T02:18:21.176Z,1014.14
2016-11-26T02:19:35.675Z,1014.17
2016-11-26T02:20:50.384Z,1014.15
2016-11-26T02:22:04.797Z,1014.09
2016-11-26T02:23:20.703Z,1014.11
2016-11-26T02:24:37.168Z,1014.05
2016-11-26T02:25:51.430Z,1014.07
2016-11-26T02:27:05.723Z,1014.04
2016-11-26T02:28:22.258Z,1014.02
2016-11-26T02:29:37.337Z,1014.02
2016-11-26T02:30:52.256Z,1014.02
2016-11-26T02:32:06.281Z,1014.01
2016-11-26T02:33:22.080Z,1014.01
2016-11-26T02:34:38.520Z,1014.07
2016-11-26T02:35:53.473Z,1014.06
2016-11-26T02:37:06.607Z,1014.06
2016-11-26T02:38:21.451Z,1014.05
2016-11-26T02:39:37.075Z,1014.08
2016-11-26T02:40:52.230Z,1014.04
2016-11-26T02:42:06.983Z,1014.08
2016-11-26T02:43:22.002Z,1014.01
2016-11-26T02:44:38.178Z,1014.02
2016-11-26T02:45:53.810Z,1014.05
2016-11-26T02:47:10.525Z,1013.99
2016-11-26T02:48:26.848Z,1013.96
2016-11-26T02:49:38.759Z,1013.99
2016-11-26T02:50:52.513Z,1014
2016-11-26T02:52:06.731Z,1014
2016-11-26T02:53:21.256Z,1014.03
2016-11-26T02:54:36.735Z,1014
2016-11-26T02:55:52.227Z,1014.01
2016-11-26T02:57:06.897Z,1014
2016-11-26T02:58:21.452Z,1014.02
2016-11-26T02:59:34.830Z,1014
2016-11-26T03:00:49.285Z,1014
2016-11-26T03:02:05.916Z,1013.95
2016-11-26T03:03:20.659Z,1013.91
2016-11-26T03:04:36.690Z,1013.93
2016-11-26T03:05:52.184Z,1013.98
2016-11-26T03:07:08.304Z,1013.97
2016-11-26T03:08:22.633Z,1013.95
2016-11-26T03:09:39.390Z,1013.96
2016-11-26T03:10:55.305Z,1013.94
2016-11-26T03:12:11.735Z,1013.92
2016-11-26T03:13:27.498Z,1013.88
2016-11-26T03:14:43.403Z,1013.89
2016-11-26T03:15:58.553Z,1013.87
2016-11-26T03:17:11.681Z,1013.89
2016-11-26T03:18:27.720Z,1013.91
2016-11-26T03:19:42.314Z,1013.88
2016-11-26T03:20:55.905Z,1013.9
2016-11-26T03:22:12.859Z,1013.87
2016-11-26T03:23:27.392Z,1013.87
2016-11-26T03:24:43.439Z,1013.86
2016-11-26T03:25:59.349Z,1013.84
2016-11-26T03:27:15.975Z,1013.78
2016-11-26T03:28:32.447Z,1013.75
2016-11-26T03:29:48.736Z,1013.77
2016-11-26T03:31:05.429Z,1013.75
2016-11-26T03:32:17.192Z,1013.72
2016-11-26T03:33:31.901Z,1013.73
2016-11-26T03:34:44.651Z,1013.69
2016-11-26T03:36:01.190Z,1013.7
2016-11-26T03:37:16.832Z,1013.68
2016-11-26T03:38:33.270Z,1013.7
2016-11-26T03:39:47.726Z,1013.65
2016-11-26T03:41:02.002Z,1013.65
2016-11-26T03:42:17.736Z,1013.6
2016-11-26T03:43:33.237Z,1013.59
2016-11-26T03:44:47.585Z,1013.62
2016-11-26T03:46:02.951Z,1013.62
2016-11-26T03:47:16.103Z,1013.55
2016-11-26T03:48:32.263Z,1013.53
2016-11-26T03:49:43.745Z,1013.58
2016-11-26T03:50:54.437Z,1013.54
2016-11-26T03:52:10.204Z,1013.54
2016-11-26T03:53:24.378Z,1013.54
2016-11-26T03:54:38.849Z,1013.56
2016-11-26T03:55:50.613Z,1013.56
2016-11-26T03:57:07.318Z,1013.61
2016-11-26T03:58:23.469Z,1013.64
2016-11-26T03:59:37.927Z,1013.65
2016-11-26T04:00:53.509Z,1013.6
2016-11-26T04:02:06.254Z,1013.61
2016-11-26T04:03:21.262Z,1013.64
2016-11-26T04:04:36.171Z,1013.66
2016-11-26T04:05:48.306Z,1013.7
2016-11-26T04:07:03.797Z,1013.67
2016-11-26T04:08:18.123Z,1013.64
2016-11-26T04:09:34.135Z,1013.7
2016-11-26T04:10:50.493Z,1013.73
2016-11-26T04:12:05.736Z,1013.69
2016-11-26T04:13:19.162Z,1013.68
2016-11-26T04:14:29.385Z,1013.67
2016-11-26T04:15:43.832Z,1013.66
2016-11-26T04:16:57.273Z,1013.67
2016-11-26T04:18:10.909Z,1013.68
2016-11-26T04:19:25.608Z,1013.67
2016-11-26T04:20:41.753Z,1013.66
2016-11-26T04:21:55.264Z,1013.64
2016-11-26T04:23:10.353Z,1013.69
2016-11-26T04:24:26.842Z,1013.66
2016-11-26T04:25:43.692Z,1013.64
2016-11-26T04:26:58.781Z,1013.61
2016-11-26T04:28:14.950Z,1013.63
2016-11-26T04:29:28.619Z,1013.65
2016-11-26T04:30:43.260Z,1013.66
2016-11-26T04:31:59.199Z,1013.7
2016-11-26T04:33:12.379Z,1013.67
2016-11-26T04:34:27.525Z,1013.63
2016-11-26T04:35:40.838Z,1013.65
2016-11-26T04:36:55.928Z,1013.62
2016-11-26T04:38:09.905Z,1013.58
2016-11-26T04:39:23.043Z,1013.58
2016-11-26T04:40:37.651Z,1013.57
2016-11-26T04:41:51.102Z,1013.54
2016-11-26T04:43:07.171Z,1013.58
2016-11-26T04:44:23.924Z,1013.58
2016-11-26T04:45:38.038Z,1013.58
2016-11-26T04:46:52.223Z,1013.59
2016-11-26T04:48:07.415Z,1013.61
2016-11-26T04:49:20.776Z,1013.6
2016-11-26T04:50:33.766Z,1013.55
2016-11-26T04:51:48.454Z,1013.53
2016-11-26T04:53:03.626Z,1013.56
2016-11-26T04:54:17.272Z,1013.53
2016-11-26T04:55:31.273Z,1013.54
2016-11-26T04:56:44.806Z,1013.56
2016-11-26T04:57:59.631Z,1013.53
2016-11-26T04:59:15.442Z,1013.49
2016-11-26T05:00:29.963Z,1013.46
2016-11-26T05:01:46.527Z,1013.48
2016-11-26T05:03:01.695Z,1013.44
2016-11-26T05:04:14.435Z,1013.47
2016-11-26T05:05:27.494Z,1013.42
2016-11-26T05:06:41.497Z,1013.4
2016-11-26T05:07:54.705Z,1013.38
2016-11-26T05:09:08.943Z,1013.39
2016-11-26T05:10:25.549Z,1013.45
2016-11-26T05:11:40.681Z,1013.37
2016-11-26T05:12:54.155Z,1013.36
2016-11-26T05:14:08.837Z,1013.38
2016-11-26T05:15:22.700Z,1013.37
2016-11-26T05:16:37.361Z,1013.39
2016-11-26T05:17:52.836Z,1013.35
2016-11-26T05:19:07.624Z,1013.38
2016-11-26T05:20:19.490Z,1013.39
2016-11-26T05:21:34.994Z,1013.45
2016-11-26T05:22:49.453Z,1013.43
2016-11-26T05:24:04.040Z,1013.43
2016-11-26T05:25:19.161Z,1013.49
2016-11-26T05:26:34.380Z,1013.46
2016-11-26T05:27:49.079Z,1013.43
2016-11-26T05:29:05.135Z,1013.42
2016-11-26T05:30:19.676Z,1013.41
2016-11-26T05:31:32.814Z,1013.45
2016-11-26T05:32:48.062Z,1013.43
2016-11-26T05:34:04.394Z,1013.45
2016-11-26T05:35:19.056Z,1013.45
2016-11-26T05:36:34.831Z,1013.48
2016-11-26T05:37:51.570Z,1013.43
2016-11-26T05:39:06.664Z,1013.45
2016-11-26T05:40:19.627Z,1013.46
2016-11-26T05:41:36.028Z,1013.43
2016-11-26T05:42:50.403Z,1013.42
2016-11-26T05:44:06.716Z,1013.42
2016-11-26T05:45:23.088Z,1013.42
2016-11-26T05:46:39.646Z,1013.42
2016-11-26T05:47:53.657Z,1013.44
2016-11-26T05:49:08.251Z,1013.46
2016-11-26T05:50:24.705Z,1013.44
2016-11-26T05:51:40.573Z,1013.44
2016-11-26T05:52:56.300Z,1013.45
2016-11-26T05:54:10.495Z,1013.45
2016-11-26T05:55:26.841Z,1013.45
2016-11-26T05:56:39.927Z,1013.4
2016-11-26T05:57:52.675Z,1013.4
2016-11-26T05:59:08.364Z,1013.38
2016-11-26T06:00:23.757Z,1013.33
2016-11-26T06:01:37.957Z,1013.33
2016-11-26T06:02:51.173Z,1013.32
2016-11-26T06:04:06.796Z,1013.34
2016-11-26T06:05:21.864Z,1013.36
2016-11-26T06:06:34.928Z,1013.34
2016-11-26T06:07:49.613Z,1013.38
2016-11-26T06:09:03.241Z,1013.39
2016-11-26T06:10:19.547Z,1013.38
2016-11-26T06:11:33.371Z,1013.38
2016-11-26T06:12:49.935Z,1013.38
2016-11-26T06:14:01.843Z,1013.31
2016-11-26T06:15:17.072Z,1013.33
2016-11-26T06:16:30.507Z,1013.33
2016-11-26T06:17:47.222Z,1013.35
2016-11-26T06:19:02.515Z,1013.35
2016-11-26T06:20:17.110Z,1013.37
2016-11-26T06:21:34.057Z,1013.34
2016-11-26T06:22:49.126Z,1013.39
2016-11-26T06:24:01.069Z,1013.38
2016-11-26T06:25:15.977Z,1013.38
2016-11-26T06:26:32.548Z,1013.38
2016-11-26T06:27:48.484Z,1013.38
2016-11-26T06:29:03.602Z,1013.38
2016-11-26T06:30:18.512Z,1013.41
2016-11-26T06:31:34.651Z,1013.48
2016-11-26T06:32:48.952Z,1013.45
2016-11-26T06:34:03.249Z,1013.45
2016-11-26T06:35:18.518Z,1013.51
2016-11-26T06:36:32.543Z,1013.5
2016-11-26T06:37:47.353Z,1013.51
2016-11-26T06:39:02.370Z,1013.47
2016-11-26T06:40:16.779Z,1013.48
2016-11-26T06:41:31.956Z,1013.45
2016-11-26T06:42:43.544Z,1013.47
2016-11-26T06:43:58.325Z,1013.47
2016-11-26T06:45:13.674Z,1013.49
2016-11-26T06:46:30.093Z,1013.48
2016-11-26T06:47:47.018Z,1013.5
2016-11-26T06:49:03.743Z,1013.42
2016-11-26T06:50:18.681Z,1013.47
2016-11-26T06:51:34.862Z,1013.44
2016-11-26T06:52:49.265Z,1013.45
2016-11-26T06:54:05.177Z,1013.42
2016-11-26T06:55:18.667Z,1013.38
2016-11-26T06:56:33.594Z,1013.43
2016-11-26T06:57:50.317Z,1013.45
2016-11-26T06:59:02.139Z,1013.42
2016-11-26T07:00:15.398Z,1013.45
2016-11-26T07:01:30.727Z,1013.41
2016-11-26T07:02:45.642Z,1013.39
2016-11-26T07:04:02.206Z,1013.38
2016-11-26T07:05:16.969Z,1013.37
2016-11-26T07:06:32.983Z,1013.37
2016-11-26T07:07:47.939Z,1013.36
2016-11-26T07:09:03.257Z,1013.38
2016-11-26T07:10:16.754Z,1013.4
2016-11-26T07:11:31.555Z,1013.42
2016-11-26T07:12:45.381Z,1013.54
2016-11-26T07:14:01.293Z,1013.5
2016-11-26T07:15:14.418Z,1013.5
2016-11-26T07:16:29.372Z,1013.54
2016-11-26T07:17:42.897Z,1013.49
2016-11-26T07:18:57.483Z,1013.46
2016-11-26T07:20:12.509Z,1013.44
2016-11-26T07:21:28.457Z,1013.41
2016-11-26T07:22:42.106Z,1013.42
2016-11-26T07:23:55.533Z,1013.42
2016-11-26T07:25:10.874Z,1013.4
2016-11-26T07:26:24.343Z,1013.35
2016-11-26T07:27:39.397Z,1013.32
2016-11-26T07:28:55.832Z,1013.32
2016-11-26T07:30:09.411Z,1013.34
2016-11-26T07:31:25.846Z,1013.34
2016-11-26T07:32:40.563Z,1013.37
2016-11-26T07:33:56.879Z,1013.35
2016-11-26T07:35:11.591Z,1013.33
2016-11-26T07:36:27.711Z,1013.35
2016-11-26T07:37:44.104Z,1013.37
2016-11-26T07:39:00.793Z,1013.4
2016-11-26T07:40:15.947Z,1013.42
2016-11-26T07:41:30.634Z,1013.48
2016-11-26T07:42:47.592Z,1013.49
2016-11-26T07:44:01.361Z,1013.52
2016-11-26T07:45:16.466Z,1013.51
2016-11-26T07:46:28.879Z,1013.53
2016-11-26T07:47:43.158Z,1013.53
2016-11-26T07:48:58.633Z,1013.56
2016-11-26T07:50:13.928Z,1013.54
2016-11-26T07:51:28.551Z,1013.51
2016-11-26T07:52:43.010Z,1013.55
2016-11-26T07:53:57.291Z,1013.56
2016-11-26T07:55:13.540Z,1013.52
2016-11-26T07:56:28.056Z,1013.55
2016-11-26T07:57:42.910Z,1013.53
2016-11-26T07:58:56.056Z,1013.53
2016-11-26T08:00:07.745Z,1013.54
2016-11-26T08:01:23.886Z,1013.54
2016-11-26T08:02:36.699Z,1013.61
2016-11-26T08:03:50.146Z,1013.52
2016-11-26T08:05:03.900Z,1013.54
2016-11-26T08:06:19.156Z,1013.48
2016-11-26T08:07:34.638Z,1013.46
2016-11-26T08:08:51.353Z,1013.5
2016-11-26T08:10:06.547Z,1013.53
2016-11-26T08:11:23.053Z,1013.5
2016-11-26T08:12:37.915Z,1013.52
2016-11-26T08:13:51.368Z,1013.49
2016-11-26T08:15:04.346Z,1013.54
2016-11-26T08:16:20.884Z,1013.58
2016-11-26T08:17:37.803Z,1013.58
2016-11-26T08:18:54.005Z,1013.62
2016-11-26T08:20:09.218Z,1013.63
2016-11-26T08:21:23.913Z,1013.61
2016-11-26T08:22:38.420Z,1013.58
2016-11-26T08:23:51.905Z,1013.59
2016-11-26T08:25:06.848Z,1013.62
2016-11-26T08:26:23.501Z,1013.6
2016-11-26T08:27:38.458Z,1013.58
2016-11-26T08:28:54.912Z,1013.55
2016-11-26T08:30:10.431Z,1013.58
2016-11-26T08:31:25.415Z,1013.54
2016-11-26T08:32:39.453Z,1013.54
2016-11-26T08:33:55.035Z,1013.53
2016-11-26T08:35:08.662Z,1013.58
2016-11-26T08:36:24.701Z,1013.53
2016-11-26T08:37:39.814Z,1013.54
2016-11-26T08:38:54.566Z,1013.57
2016-11-26T08:40:09.355Z,1013.54
2016-11-26T08:41:21.307Z,1013.5
2016-11-26T08:42:36.812Z,1013.47
2016-11-26T08:43:53.135Z,1013.43
2016-11-26T08:45:08.626Z,1013.43
2016-11-26T08:46:23.906Z,1013.49
2016-11-26T08:47:37.534Z,1013.44
2016-11-26T08:48:52.720Z,1013.47
2016-11-26T08:50:07.448Z,1013.44
2016-11-26T08:51:22.219Z,1013.42
2016-11-26T08:52:37.507Z,1013.41
2016-11-26T08:53:49.921Z,1013.45
2016-11-26T08:55:06.506Z,1013.37
2016-11-26T08:56:22.425Z,1013.4
2016-11-26T08:57:35.940Z,1013.37
2016-11-26T08:58:51.342Z,1013.36
2016-11-26T09:00:07.240Z,1013.4
2016-11-26T09:01:22.593Z,1013.39
2016-11-26T09:02:38.929Z,1013.44
2016-11-26T09:03:54.987Z,1013.45
2016-11-26T09:05:09.656Z,1013.45
2016-11-26T09:06:26.805Z,1013.47
2016-11-26T09:07:43.524Z,1013.45
2016-11-26T09:08:58.243Z,1013.46
2016-11-26T09:10:13.362Z,1013.43
2016-11-26T09:11:29.704Z,1013.4
2016-11-26T09:12:44.806Z,1013.4
2016-11-26T09:14:00.849Z,1013.32
2016-11-26T09:15:15.958Z,1013.24
2016-11-26T09:16:32.811Z,1013.21
2016-11-26T09:17:47.502Z,1013.23
2016-11-26T09:19:00.609Z,1013.19
2016-11-26T09:20:13.599Z,1013.17
2016-11-26T09:21:26.768Z,1013.13
2016-11-26T09:22:40.664Z,1013.18
2016-11-26T09:23:55.609Z,1013.16
2016-11-26T09:25:11.245Z,1013.17
2016-11-26T09:26:26.930Z,1013.18
2016-11-26T09:27:43.069Z,1013.22
2016-11-26T09:28:59.232Z,1013.23
2016-11-26T09:30:14.482Z,1013.28
2016-11-26T09:31:28.012Z,1013.25
2016-11-26T09:32:42.555Z,1013.23
2016-11-26T09:33:57.910Z,1013.28
2016-11-26T09:35:14.777Z,1013.35
2016-11-26T09:36:28.217Z,1013.35
2016-11-26T09:37:44.292Z,1013.33
2016-11-26T09:38:59.953Z,1013.35
2016-11-26T09:40:13.534Z,1013.35
2016-11-26T09:41:27.003Z,1013.35
2016-11-26T09:42:42.508Z,1013.37
2016-11-26T09:43:56.823Z,1013.38
2016-11-26T09:45:11.516Z,1013.41
2016-11-26T09:46:27.421Z,1013.37
2016-11-26T09:47:43.306Z,1013.27
2016-11-26T09:48:59.705Z,1013.25
2016-11-26T09:50:14.314Z,1013.26
2016-11-26T09:51:31.025Z,1013.29
2016-11-26T09:52:47.740Z,1013.27
2016-11-26T09:54:02.357Z,1013.23
2016-11-26T09:55:18.669Z,1013.22
2016-11-26T09:56:33.732Z,1013.23
2016-11-26T09:57:49.901Z,1013.28
2016-11-26T09:59:06.898Z,1013.29
2016-11-26T10:00:21.985Z,1013.28
2016-11-26T10:01:38.659Z,1013.29
2016-11-26T10:02:52.229Z,1013.26
2016-11-26T10:04:07.066Z,1013.23
2016-11-26T10:05:20.527Z,1013.18
2016-11-26T10:06:34.351Z,1013.19
2016-11-26T10:07:49.053Z,1013.21
2016-11-26T10:09:04.142Z,1013.21
2016-11-26T10:10:20.179Z,1013.2
2016-11-26T10:11:35.297Z,1013.23
2016-11-26T10:12:51.698Z,1013.21
2016-11-26T10:14:05.034Z,1013.17
2016-11-26T10:15:19.489Z,1013.16
2016-11-26T10:16:36.542Z,1013.1
2016-11-26T10:17:51.226Z,1013.13
2016-11-26T10:19:01.964Z,1013.1
2016-11-26T10:20:13.865Z,1013.11
2016-11-26T10:21:30.583Z,1013.14
2016-11-26T10:22:46.691Z,1013.11
2016-11-26T10:24:01.132Z,1013.1
2016-11-26T10:25:16.389Z,1013.08
2016-11-26T10:26:28.630Z,1012.99
2016-11-26T10:27:43.645Z,1012.94
2016-11-26T10:28:58.279Z,1012.86
2016-11-26T10:30:14.967Z,1012.82
2016-11-26T10:31:31.467Z,1012.8
2016-11-26T10:32:46.241Z,1012.73
2016-11-26T10:33:59.785Z,1012.72
2016-11-26T10:35:12.599Z,1012.73
2016-11-26T10:36:28.752Z,1012.68
2016-11-26T10:37:40.301Z,1012.69
2016-11-26T10:38:57.570Z,1012.72
2016-11-26T10:40:12.257Z,1012.69
2016-11-26T10:41:27.566Z,1012.66
2016-11-26T10:42:43.735Z,1012.65
2016-11-26T10:43:58.544Z,1012.61
2016-11-26T10:45:15.652Z,1012.68
2016-11-26T10:46:27.416Z,1012.71
2016-11-26T10:47:43.952Z,1012.69
2016-11-26T10:48:57.350Z,1012.73
2016-11-26T10:50:11.664Z,1012.68
2016-11-26T10:51:26.460Z,1012.72
2016-11-26T10:52:43.214Z,1012.75
2016-11-26T10:53:58.878Z,1012.76
2016-11-26T10:55:14.067Z,1012.7
2016-11-26T10:56:27.054Z,1012.7
2016-11-26T10:57:42.047Z,1012.68
2016-11-26T10:58:56.587Z,1012.63
2016-11-26T11:00:09.588Z,1012.6
2016-11-26T11:01:25.952Z,1012.64
2016-11-26T11:02:38.323Z,1012.62
2016-11-26T11:03:51.071Z,1012.64
2016-11-26T11:05:05.791Z,1012.6
2016-11-26T11:06:21.993Z,1012.61
2016-11-26T11:07:38.322Z,1012.6
2016-11-26T11:08:54.646Z,1012.62
2016-11-26T11:10:08.384Z,1012.58
2016-11-26T11:11:23.747Z,1012.6
2016-11-26T11:12:39.835Z,1012.55
2016-11-26T11:13:55.384Z,1012.52
2016-11-26T11:15:11.910Z,1012.51
2016-11-26T11:16:27.907Z,1012.59
2016-11-26T11:17:42.689Z,1012.58
2016-11-26T11:18:54.256Z,1012.61
2016-11-26T11:20:09.743Z,1012.56
2016-11-26T11:21:26.329Z,1012.57
2016-11-26T11:22:41.082Z,1012.57
2016-11-26T11:23:53.415Z,1012.55
2016-11-26T11:25:09.564Z,1012.52
2016-11-26T11:26:26.845Z,1012.48
2016-11-26T11:27:40.126Z,1012.44
2016-11-26T11:28:56.863Z,1012.48
2016-11-26T11:30:13.302Z,1012.49
2016-11-26T11:31:28.371Z,1012.5
2016-11-26T11:32:43.470Z,1012.57
2016-11-26T11:33:59.892Z,1012.58
2016-11-26T11:35:14.599Z,1012.53
2016-11-26T11:36:29.776Z,1012.48
2016-11-26T11:37:46.327Z,1012.43
2016-11-26T11:38:59.483Z,1012.41
2016-11-26T11:40:15.633Z,1012.37
2016-11-26T11:41:30.893Z,1012.38
2016-11-26T11:42:46.420Z,1012.37
2016-11-26T11:44:03.144Z,1012.4
2016-11-26T11:45:19.263Z,1012.37
2016-11-26T11:46:32.319Z,1012.37
2016-11-26T11:47:46.925Z,1012.37
2016-11-26T11:49:00.789Z,1012.41
2016-11-26T11:50:16.948Z,1012.4
2016-11-26T11:51:32.839Z,1012.35
2016-11-26T11:52:46.218Z,1012.33
2016-11-26T11:54:01.111Z,1012.35
2016-11-26T11:55:16.266Z,1012.33
2016-11-26T11:56:31.186Z,1012.31
2016-11-26T11:57:47.094Z,1012.3
2016-11-26T11:59:03.607Z,1012.27
2016-11-26T12:00:16.642Z,1012.26
2016-11-26T12:01:32.681Z,1012.27
2016-11-26T12:02:48.706Z,1012.2
2016-11-26T12:04:02.169Z,1012.19
2016-11-26T12:05:16.605Z,1012.18
2016-11-26T12:06:31.621Z,1012.14
2016-11-26T12:07:45.112Z,1012.17
2016-11-26T12:09:00.993Z,1012.14
2016-11-26T12:10:14.683Z,1012.1
2016-11-26T12:11:26.778Z,1012.13
2016-11-26T12:12:41.803Z,1012.09
2016-11-26T12:13:56.649Z,1012.04
2016-11-26T12:15:10.119Z,1012.02
2016-11-26T12:16:24.746Z,1012.06
2016-11-26T12:17:37.884Z,1012.1
2016-11-26T12:18:52.559Z,1012.09
2016-11-26T12:20:08.552Z,1012.08
2016-11-26T12:21:21.684Z,1012.07
2016-11-26T12:22:36.957Z,1012.13
2016-11-26T12:23:52.471Z,1012.08
2016-11-26T12:25:08.800Z,1012.04
2016-11-26T12:26:25.159Z,1012.01
2016-11-26T12:27:42.108Z,1011.98
2016-11-26T12:28:57.581Z,1011.96
2016-11-26T12:30:11.044Z,1011.93
2016-11-26T12:31:24.691Z,1011.91
2016-11-26T12:32:38.262Z,1011.93
2016-11-26T12:33:55.250Z,1011.88
2016-11-26T12:35:11.175Z,1011.9
2016-11-26T12:36:26.031Z,1011.88
2016-11-26T12:37:42.733Z,1011.82
2016-11-26T12:38:56.636Z,1011.78
2016-11-26T12:40:13.046Z,1011.81
2016-11-26T12:41:27.308Z,1011.77
2016-11-26T12:42:43.241Z,1011.77
2016-11-26T12:43:56.055Z,1011.77
2016-11-26T12:45:09.296Z,1011.74
2016-11-26T12:46:26.377Z,1011.7
2016-11-26T12:47:43.086Z,1011.68
2016-11-26T12:48:59.237Z,1011.66
2016-11-26T12:50:13.845Z,1011.62
2016-11-26T12:51:30.787Z,1011.63
2016-11-26T12:52:45.822Z,1011.64
2016-11-26T12:54:02.560Z,1011.59
2016-11-26T12:55:16.846Z,1011.59
2016-11-26T12:56:31.196Z,1011.61
2016-11-26T12:57:47.329Z,1011.59
2016-11-26T12:59:00.799Z,1011.59
2016-11-26T13:00:17.544Z,1011.54
2016-11-26T13:01:34.020Z,1011.51
2016-11-26T13:02:50.734Z,1011.48
2016-11-26T13:04:07.314Z,1011.45
2016-11-26T13:05:24.185Z,1011.4
2016-11-26T13:06:37.591Z,1011.41
2016-11-26T13:07:53.656Z,1011.39
2016-11-26T13:09:07.280Z,1011.38
2016-11-26T13:10:22.166Z,1011.36
2016-11-26T13:11:38.558Z,1011.36
2016-11-26T13:12:51.579Z,1011.37
2016-11-26T13:14:06.182Z,1011.38
2016-11-26T13:15:21.122Z,1011.39
2016-11-26T13:16:34.336Z,1011.36
2016-11-26T13:17:50.319Z,1011.4
2016-11-26T13:19:02.725Z,1011.42
2016-11-26T13:20:17.643Z,1011.41
2016-11-26T13:21:32.062Z,1011.43
2016-11-26T13:22:47.055Z,1011.46
2016-11-26T13:24:02.271Z,1011.46
2016-11-26T13:25:16.463Z,1011.49
2016-11-26T13:26:31.086Z,1011.5
2016-11-26T13:27:45.769Z,1011.5
2016-11-26T13:29:00.514Z,1011.5
2016-11-26T13:30:15.113Z,1011.48
2016-11-26T13:31:30.231Z,1011.51
2016-11-26T13:32:43.637Z,1011.5
2016-11-26T13:33:58.479Z,1011.47
2016-11-26T13:35:15.336Z,1011.48
2016-11-26T13:36:27.450Z,1011.47
2016-11-26T13:37:43.892Z,1011.46
2016-11-26T13:38:55.441Z,1011.4
2016-11-26T13:40:12.512Z,1011.41
2016-11-26T13:41:26.779Z,1011.36
2016-11-26T13:42:40.068Z,1011.35
2016-11-26T13:43:54.596Z,1011.31
2016-11-26T13:45:09.469Z,1011.34
2016-11-26T13:46:25.862Z,1011.38
2016-11-26T13:47:40.540Z,1011.32
2016-11-26T13:48:57.239Z,1011.32
2016-11-26T13:50:12.821Z,1011.34
2016-11-26T13:51:29.528Z,1011.3
2016-11-26T13:52:45.991Z,1011.27
2016-11-26T13:54:02.128Z,1011.32
2016-11-26T13:55:17.393Z,1011.31
2016-11-26T13:56:32.880Z,1011.27
2016-11-26T13:57:47.483Z,1011.23
2016-11-26T13:59:00.998Z,1011.26
2016-11-26T14:00:15.263Z,1011.19
2016-11-26T14:01:31.446Z,1011.22
2016-11-26T14:02:44.828Z,1011.22
2016-11-26T14:03:55.547Z,1011.19
2016-11-26T14:05:08.286Z,1011.19
2016-11-26T14:06:21.808Z,1011.19
2016-11-26T14:07:37.280Z,1011.2
2016-11-26T14:08:54.039Z,1011.21
2016-11-26T14:10:07.254Z,1011.24
2016-11-26T14:11:22.803Z,1011.27
2016-11-26T14:12:37.510Z,1011.29
2016-11-26T14:13:52.400Z,1011.26
2016-11-26T14:15:07.430Z,1011.24
2016-11-26T14:16:24.230Z,1011.24
2016-11-26T14:17:39.947Z,1011.26
2016-11-26T14:18:56.336Z,1011.23
2016-11-26T14:20:11.886Z,1011.2
2016-11-26T14:21:27.178Z,1011.21
2016-11-26T14:22:42.276Z,1011.21
2016-11-26T14:23:57.336Z,1011.15
2016-11-26T14:25:12.283Z,1011.08
2016-11-26T14:26:26.299Z,1011.12
2016-11-26T14:27:42.612Z,1011.08
2016-11-26T14:28:58.012Z,1011.09
2016-11-26T14:30:13.535Z,1011.11
2016-11-26T14:31:27.969Z,1011.12
2016-11-26T14:32:43.876Z,1011.12
2016-11-26T14:33:59.900Z,1011.08
2016-11-26T14:35:15.964Z,1011.12
2016-11-26T14:36:31.110Z,1011.05
2016-11-26T14:37:48.381Z,1011.03
2016-11-26T14:39:04.910Z,1011.01
2016-11-26T14:40:17.993Z,1010.96
2016-11-26T14:41:33.230Z,1010.99
2016-11-26T14:42:49.792Z,1010.97
2016-11-26T14:44:03.210Z,1010.97
2016-11-26T14:45:17.487Z,1010.92
2016-11-26T14:46:32.394Z,1010.97
2016-11-26T14:47:49.536Z,1010.94
2016-11-26T14:49:04.355Z,1010.98
2016-11-26T14:50:20.643Z,1011.01
2016-11-26T14:51:37.045Z,1011
2016-11-26T14:52:51.764Z,1011
2016-11-26T14:54:07.272Z,1010.98
2016-11-26T14:55:22.614Z,1011
2016-11-26T14:56:39.745Z,1011.04
2016-11-26T14:57:55.254Z,1011.03
2016-11-26T14:59:10.146Z,1011.07
2016-11-26T15:00:26.316Z,1011.11
2016-11-26T15:01:41.215Z,1011.06
2016-11-26T15:02:57.762Z,1011
2016-11-26T15:04:12.013Z,1011.02
2016-11-26T15:05:28.878Z,1010.97
2016-11-26T15:06:42.921Z,1011.01
2016-11-26T15:07:56.562Z,1011.05
2016-11-26T15:09:11.287Z,1011
2016-11-26T15:10:28.007Z,1011.05